createdAt,value
2023-02-15T00:01:12.459Z,63.95
2023-02-15T00:03:41.006Z,69.82
2023-02-15T00:06:09.065Z,74.58
2023-02-15T00:08:37.599Z,66.87
2023-02-15T00:11:09.107Z,63.65
2023-02-15T00:13:37.499Z,65.65
2023-02-15T00:16:11.286Z,63.52
2023-02-15T00:18:40.746Z,66.33
2023-02-15T00:21:11.335Z,69.87
2023-02-15T00:23:59.914Z,66.02
2023-02-15T00:26:28.360Z,70.40
2023-02-15T00:28:56.944Z,72.97
2023-02-15T00:31:25.589Z,70.30
2023-02-15T00:33:53.437Z,64.55
2023-02-15T00:36:22.378Z,79.12
2023-02-15T00:38:50.660Z,75.15
2023-02-15T00:41:18.933Z,75.22
2023-02-15T00:43:48.280Z,75.00
2023-02-15T00:46:16.615Z,75.62
2023-02-15T00:48:45.304Z,72.12
2023-02-15T00:51:13.009Z,73.87
2023-02-15T00:53:40.934Z,76.82
2023-02-15T00:56:09.933Z,67.65
2023-02-15T00:58:38.398Z,67.15
2023-02-15T01:01:09.390Z,63.50
2023-02-15T01:03:57.494Z,70.80
2023-02-15T02:32:41.459Z,60.25
2023-02-15T02:35:26.115Z,60.55
2023-02-15T02:38:17.981Z,59.63
2023-02-15T02:41:05.438Z,59.90
2023-02-15T02:43:46.652Z,58.70
2023-02-15T02:46:21.813Z,57.93
2023-02-15T02:51:38.971Z,61.08
2023-02-15T02:54:08.681Z,60.85
2023-02-15T02:56:40.589Z,63.75
2023-02-15T02:59:15.493Z,58.42
2023-02-15T03:01:47.459Z,68.00
2023-02-15T03:04:20.137Z,64.58
2023-02-15T03:07:09.180Z,59.35
2023-02-15T03:09:43.333Z,55.73
2023-02-15T03:12:16.166Z,62.35
2023-02-15T03:15:08.921Z,53.50
2023-02-15T03:17:41.561Z,52.05
2023-02-15T03:20:18.608Z,47.80
2023-02-15T03:22:52.811Z,49.55
2023-02-15T03:25:23.976Z,46.55
2023-02-15T03:30:47.550Z,48.98
2023-02-15T03:33:16.752Z,50.85
2023-02-15T03:36:06.476Z,47.08
2023-02-15T03:38:57.843Z,47.35
2023-02-15T03:41:28.629Z,47.15
2023-02-15T03:44:03.404Z,44.13
2023-02-15T03:46:38.595Z,45.60
2023-02-15T03:49:13.618Z,48.83
2023-02-15T03:51:45.571Z,43.60
2023-02-15T03:54:18.432Z,50.90
2023-02-15T03:56:48.950Z,45.58
2023-02-15T03:59:36.185Z,45.38
2023-02-15T04:02:07.828Z,47.90
2023-02-15T04:04:42.241Z,47.15
2023-02-15T04:07:11.152Z,47.62
2023-02-15T04:09:57.488Z,49.45
2023-02-15T04:12:29.085Z,47.25
2023-02-15T04:15:18.650Z,45.55
2023-02-15T04:17:46.532Z,49.05
2023-02-15T04:20:35.709Z,45.85
2023-02-15T04:23:25.719Z,46.55
2023-02-15T04:25:53.693Z,46.45
2023-02-15T04:28:21.332Z,43.92
2023-02-15T04:30:55.569Z,41.95
2023-02-15T04:33:23.388Z,44.13
2023-02-15T04:35:51.206Z,40.15
2023-02-15T04:38:19.338Z,42.15
2023-02-15T04:40:56.100Z,41.92
2023-02-15T04:43:24.128Z,42.80
2023-02-15T04:45:53.030Z,44.42
2023-02-15T04:48:20.452Z,44.15
2023-02-15T04:50:48.800Z,49.25
2023-02-15T04:53:17.783Z,51.02
2023-02-15T04:55:46.342Z,48.35
2023-02-15T04:58:14.070Z,54.50
2023-02-15T05:00:42.661Z,52.27
2023-02-15T05:03:10.805Z,49.23
2023-02-15T05:05:38.501Z,52.43
2023-02-15T05:08:06.633Z,51.92
2023-02-15T05:10:34.807Z,54.03
2023-02-15T05:13:02.722Z,58.78
2023-02-15T05:15:31.108Z,56.00
2023-02-15T05:17:58.893Z,56.83
2023-02-15T05:20:27.053Z,58.70
2023-02-15T05:22:57.525Z,64.35
2023-02-15T05:25:45.298Z,70.35
2023-02-15T05:28:24.706Z,57.60
2023-02-15T05:31:08.820Z,63.78
2023-02-15T05:33:37.222Z,61.87
2023-02-15T05:36:06.186Z,61.48
2023-02-15T05:38:34.473Z,61.88
2023-02-15T05:41:02.477Z,64.72
2023-02-15T05:43:30.350Z,64.55
2023-02-15T05:45:58.164Z,66.42
2023-02-15T05:48:27.758Z,67.87
2023-02-15T05:51:02.405Z,62.13
2023-02-15T05:53:31.725Z,61.80
2023-02-15T05:56:04.500Z,62.83
2023-02-15T05:58:34.945Z,62.40
2023-02-15T06:01:15.453Z,57.45
2023-02-15T06:03:43.382Z,59.98
2023-02-15T06:06:11.734Z,61.50
2023-02-15T06:08:39.748Z,64.15
2023-02-15T06:11:07.791Z,58.17
2023-02-15T06:13:38.543Z,63.55
2023-02-15T06:16:06.950Z,62.50
2023-02-15T06:18:35.300Z,56.83
2023-02-15T06:21:02.964Z,54.55
2023-02-15T06:23:31.308Z,63.60
2023-02-15T06:25:59.030Z,63.02
2023-02-15T06:28:26.908Z,64.50
2023-02-15T06:30:54.531Z,62.88
2023-02-15T06:33:23.334Z,66.67
2023-02-15T06:35:50.757Z,69.53
2023-02-15T06:38:19.044Z,64.60
2023-02-15T06:40:47.955Z,62.13
2023-02-15T06:43:16.239Z,70.22
2023-02-15T06:45:44.394Z,68.52
2023-02-15T06:48:13.689Z,72.55
2023-02-15T06:50:45.829Z,65.85
2023-02-15T06:53:13.833Z,67.35
2023-02-15T06:55:52.571Z,68.55
2023-02-15T06:58:24.106Z,64.87
2023-02-15T07:00:53.400Z,75.00
2023-02-15T07:03:20.999Z,73.80
2023-02-15T07:05:50.888Z,71.25
2023-02-15T07:08:21.066Z,69.75
2023-02-15T07:10:50.908Z,69.95
2023-02-15T07:13:19.406Z,76.90
2023-02-15T07:15:54.467Z,73.72
2023-02-15T07:18:22.840Z,68.47
2023-02-15T07:20:50.467Z,76.07
2023-02-15T07:23:18.603Z,81.15
2023-02-15T07:25:46.642Z,87.90
2023-02-15T07:28:14.292Z,72.80
2023-02-15T07:30:42.442Z,67.30
2023-02-15T07:33:25.778Z,69.80
2023-02-15T07:36:03.220Z,67.70
2023-02-15T07:38:42.067Z,67.05
2023-02-15T07:41:12.270Z,64.20
2023-02-15T07:43:42.358Z,65.75
2023-02-15T07:46:16.865Z,84.80
2023-02-15T07:48:45.454Z,82.05
2023-02-15T07:51:13.891Z,77.85
2023-02-15T07:53:42.312Z,70.87
2023-02-15T07:56:13.943Z,72.55
2023-02-15T07:58:54.017Z,69.05
2023-02-15T08:01:30.566Z,66.45
2023-02-15T08:03:59.296Z,67.82
2023-02-15T08:06:29.737Z,65.80
2023-02-15T08:09:01.028Z,68.10
2023-02-15T08:11:35.816Z,70.30
2023-02-15T08:14:12.558Z,66.80
2023-02-15T08:16:43.448Z,66.92
2023-02-15T08:19:14.568Z,67.20
2023-02-15T08:21:45.502Z,66.62
2023-02-15T08:24:17.291Z,72.12
2023-02-15T08:26:48.091Z,69.60
2023-02-15T08:29:36.387Z,69.05
2023-02-15T08:32:07.430Z,73.25
2023-02-15T08:34:39.554Z,71.90
2023-02-15T08:37:10.579Z,70.97
2023-02-15T08:39:38.721Z,63.42
2023-02-15T08:42:06.815Z,62.27
2023-02-15T08:44:34.743Z,70.78
2023-02-15T08:47:04.293Z,68.60
2023-02-15T08:49:32.193Z,67.85
2023-02-15T08:52:00.956Z,68.30
2023-02-15T08:54:29.412Z,66.95
2023-02-15T08:56:57.468Z,62.15
2023-02-15T08:59:27.780Z,70.62
2023-02-15T09:01:56.581Z,68.95
2023-02-15T09:04:24.549Z,58.15
2023-02-15T09:06:52.984Z,62.73
2023-02-15T09:09:21.499Z,65.10
2023-02-15T09:11:56.811Z,66.87
2023-02-15T09:14:22.766Z,61.53
2023-02-15T09:16:52.570Z,63.48
2023-02-15T09:19:22.115Z,69.27
2023-02-15T09:21:52.855Z,63.85
2023-02-15T09:24:21.302Z,65.05
2023-02-15T09:26:55.464Z,72.80
2023-02-15T09:29:24.930Z,66.53
2023-02-15T09:31:53.860Z,67.03
2023-02-15T09:34:23.576Z,61.40
2023-02-15T09:36:52.560Z,60.48
2023-02-15T09:39:42.221Z,67.40
2023-02-15T09:42:31.130Z,63.42
2023-02-15T09:45:29.969Z,63.17
2023-02-15T09:48:18.754Z,65.97
2023-02-15T09:51:10.206Z,70.95
2023-02-15T09:53:57.174Z,68.47
2023-02-15T09:56:28.797Z,68.87
2023-02-15T09:59:06.092Z,70.40
2023-02-15T10:01:50.174Z,73.42
2023-02-15T10:04:55.562Z,69.82
2023-02-15T10:07:42.272Z,70.63
2023-02-15T10:10:17.310Z,67.42
2023-02-15T10:12:54.572Z,69.77
2023-02-15T10:15:40.152Z,66.17
2023-02-15T10:20:59.058Z,60.52
2023-02-15T10:23:47.595Z,67.32
2023-02-15T10:26:24.806Z,78.92
2023-02-15T10:28:56.299Z,70.08
2023-02-15T10:31:31.195Z,71.10
2023-02-15T10:34:23.936Z,69.00
2023-02-15T10:37:15.502Z,70.17
2023-02-15T10:39:59.391Z,74.87
2023-02-15T10:42:54.568Z,69.10
2023-02-15T10:45:35.296Z,75.20
2023-02-15T10:48:30.558Z,77.67
2023-02-15T10:51:04.586Z,76.07
2023-02-15T10:53:57.192Z,80.07
2023-02-15T10:56:40.472Z,83.55
2023-02-15T10:59:36.535Z,77.97
2023-02-15T11:02:43.456Z,87.50
2023-02-15T11:05:30.214Z,84.75
2023-02-15T11:08:01.638Z,76.70
2023-02-15T11:10:48.611Z,80.10
2023-02-15T11:13:19.659Z,81.22
2023-02-15T11:15:54.334Z,82.67
2023-02-15T11:18:41.124Z,80.95
2023-02-15T11:21:15.853Z,70.45
2023-02-15T11:23:46.601Z,71.25
2023-02-15T11:26:45.691Z,69.92
2023-02-15T11:29:32.393Z,72.50
2023-02-15T11:32:16.528Z,80.50
2023-02-15T11:35:03.570Z,81.70
2023-02-15T11:37:44.532Z,80.90
2023-02-15T11:40:33.822Z,73.97
2023-02-15T11:43:08.413Z,75.60
2023-02-15T11:45:36.787Z,78.60
2023-02-15T11:48:13.630Z,87.40
2023-02-15T11:50:43.740Z,76.28
2023-02-15T11:53:22.686Z,74.53
2023-02-15T11:58:43.922Z,75.28
2023-02-15T12:01:15.348Z,74.25
2023-02-15T12:03:49.305Z,80.42
2023-02-15T12:06:20.917Z,82.90
2023-02-15T12:09:05.330Z,79.07
2023-02-15T12:11:41.337Z,84.37
2023-02-15T12:14:11.640Z,81.57
2023-02-15T12:16:55.779Z,80.60
2023-02-15T12:19:31.055Z,82.72
2023-02-15T12:22:09.336Z,78.87
2023-02-15T12:24:40.066Z,78.70
2023-02-15T12:27:17.745Z,77.42
2023-02-15T12:29:55.482Z,72.50
2023-02-15T12:32:30.078Z,78.87
2023-02-15T12:35:10.653Z,69.50
2023-02-15T12:37:38.907Z,74.42
2023-02-15T12:40:22.708Z,77.75
2023-02-15T12:42:50.724Z,69.60
2023-02-15T12:45:25.903Z,76.00
2023-02-15T12:48:40.659Z,67.85
2023-02-15T12:51:10.783Z,76.60
2023-02-15T12:53:44.733Z,71.57
2023-02-15T12:56:31.785Z,69.90
2023-02-15T12:59:06.865Z,73.10
2023-02-15T13:04:06.595Z,69.82
2023-02-15T13:06:36.261Z,65.20
2023-02-15T13:09:20.083Z,66.97
2023-02-15T13:11:49.183Z,66.90
2023-02-15T13:14:20.303Z,63.35
2023-02-15T13:16:52.780Z,77.95
2023-02-15T13:19:30.550Z,78.45
2023-02-15T13:22:01.832Z,72.92
2023-02-15T13:24:33.292Z,67.42
2023-02-15T13:27:14.550Z,71.30
2023-02-15T13:29:37.715Z,62.27
2023-02-15T13:34:39.450Z,67.30
2023-02-15T13:37:35.693Z,65.22
2023-02-15T13:40:10.898Z,60.38
2023-02-15T13:42:46.464Z,62.35
2023-02-15T13:45:40.938Z,60.90
2023-02-15T13:48:12.376Z,58.68
2023-02-15T13:50:44.159Z,59.27
2023-02-15T13:53:37.252Z,59.60
2023-02-15T13:56:23.845Z,53.23
2023-02-15T13:59:05.516Z,56.75
2023-02-15T14:01:46.866Z,56.58
2023-02-15T14:04:33.714Z,58.60
2023-02-15T14:07:33.841Z,50.28
2023-02-15T14:10:23.279Z,55.83
2023-02-15T14:13:07.808Z,56.60
2023-02-15T14:15:46.674Z,53.78
2023-02-15T14:18:42.435Z,58.75
2023-02-15T14:21:14.129Z,60.03
2023-02-15T14:24:11.948Z,56.53
2023-02-15T14:26:52.473Z,57.33
2023-02-15T14:29:46.938Z,55.63
2023-02-15T14:32:31.195Z,56.15
2023-02-15T14:35:01.558Z,55.63
2023-02-15T14:37:54.265Z,55.38
2023-02-15T14:40:56.289Z,50.28
2023-02-15T14:43:47.867Z,58.30
2023-02-15T14:46:22.550Z,59.77
2023-02-15T14:51:47.022Z,53.42
2023-02-15T14:57:07.849Z,58.80
2023-02-15T15:00:00.645Z,53.60
2023-02-15T15:02:49.473Z,51.63
2023-02-15T15:05:27.122Z,53.38
2023-02-15T15:07:58.433Z,57.33
2023-02-15T15:10:38.883Z,54.95
2023-02-15T15:13:27.302Z,59.03
2023-02-15T15:15:55.280Z,53.13
2023-02-15T15:18:46.375Z,53.40
2023-02-15T15:21:35.204Z,55.50
2023-02-15T15:24:03.905Z,58.68
2023-02-15T15:26:38.667Z,55.60
2023-02-15T15:29:07.979Z,56.00
2023-02-15T15:31:45.793Z,67.15
2023-02-15T15:34:23.244Z,60.83
2023-02-15T15:37:24.614Z,87.00
2023-02-15T15:39:56.041Z,63.63
2023-02-15T15:42:43.103Z,56.10
2023-02-15T15:45:20.549Z,59.95
2023-02-15T15:48:06.344Z,70.08
2023-02-15T15:50:26.415Z,70.35
2023-02-15T15:53:00.008Z,62.15
2023-02-15T15:55:31.466Z,72.15
2023-02-15T15:58:02.942Z,66.82
2023-02-15T16:00:40.497Z,67.32
2023-02-15T16:03:17.312Z,66.67
2023-02-15T16:05:44.533Z,65.80
2023-02-15T16:08:20.776Z,63.65
2023-02-15T16:10:54.613Z,66.02
2023-02-15T16:13:22.844Z,71.53
2023-02-15T16:15:57.864Z,75.10
2023-02-15T16:18:28.697Z,76.90
2023-02-15T16:21:02.382Z,75.55
2023-02-15T16:23:40.653Z,73.87
2023-02-15T16:26:19.008Z,73.95
2023-02-15T16:28:50.442Z,72.97
2023-02-15T16:31:18.616Z,69.17
2023-02-15T16:33:47.235Z,75.70
2023-02-15T16:36:27.661Z,75.37
2023-02-15T16:39:02.521Z,67.15
2023-02-15T16:41:31.282Z,69.82
2023-02-15T16:44:03.351Z,64.95
2023-02-15T16:46:43.237Z,64.00
2023-02-15T16:49:18.164Z,65.75
2023-02-15T16:51:51.331Z,58.52
2023-02-15T16:54:24.422Z,73.25
2023-02-15T16:56:53.550Z,64.95
2023-02-15T16:59:28.621Z,68.97
2023-02-15T17:01:58.937Z,66.72
2023-02-15T17:04:31.004Z,71.92
2023-02-15T17:07:05.997Z,70.17
2023-02-15T17:09:32.113Z,74.60
2023-02-15T17:12:14.084Z,67.70
2023-02-15T17:14:42.395Z,72.82
2023-02-15T17:17:16.256Z,72.72
2023-02-15T17:19:52.895Z,71.77
2023-02-15T17:22:28.303Z,79.62
2023-02-15T17:25:01.914Z,74.53
2023-02-15T17:27:33.105Z,72.40
2023-02-15T17:30:04.097Z,72.80
2023-02-15T17:32:35.944Z,70.30
2023-02-15T17:35:10.123Z,74.82
2023-02-15T17:37:42.081Z,76.55
2023-02-15T17:40:25.419Z,74.65
2023-02-15T17:42:56.778Z,76.47
2023-02-15T17:45:27.853Z,74.72
2023-02-15T17:47:58.025Z,70.60
2023-02-15T17:50:28.302Z,74.07
2023-02-15T17:52:58.228Z,71.28
2023-02-15T17:55:43.140Z,75.10
2023-02-15T17:58:16.317Z,79.37
2023-02-15T18:01:05.936Z,81.40
2023-02-15T18:03:55.830Z,78.12
2023-02-15T18:06:42.514Z,73.07
2023-02-15T18:09:34.192Z,73.92
2023-02-15T18:12:02.337Z,76.57
2023-02-15T18:14:31.805Z,80.80
2023-02-15T18:17:03.064Z,77.80
2023-02-15T18:19:31.166Z,76.28
2023-02-15T18:21:59.168Z,74.77
2023-02-15T18:24:27.790Z,76.42
2023-02-15T18:26:55.668Z,75.75
2023-02-15T18:29:23.674Z,74.60
2023-02-15T18:34:45.081Z,74.00
2023-02-15T18:37:19.699Z,73.25
2023-02-15T18:39:54.630Z,78.62
2023-02-15T18:42:32.167Z,73.78
2023-02-15T18:45:03.532Z,80.50
2023-02-15T18:47:31.665Z,75.95
2023-02-15T18:49:59.908Z,77.35
2023-02-15T18:52:31.567Z,76.70
2023-02-15T18:55:02.570Z,73.42
2023-02-15T18:57:30.920Z,78.80
2023-02-15T18:59:58.324Z,79.12
2023-02-15T19:02:26.455Z,75.37
2023-02-15T19:04:54.350Z,76.15
2023-02-15T19:07:30.817Z,73.40
2023-02-15T19:10:00.703Z,72.53
2023-02-15T19:12:29.328Z,72.80
2023-02-15T19:14:57.174Z,69.80
2023-02-15T19:17:25.419Z,72.50
2023-02-15T19:19:56.418Z,83.22
2023-02-15T19:22:30.742Z,73.97
2023-02-15T19:25:23.041Z,67.15
2023-02-15T19:27:51.915Z,69.72
2023-02-15T19:30:23.684Z,71.35
2023-02-15T19:32:52.040Z,80.97
2023-02-15T19:35:26.376Z,81.87
2023-02-15T19:37:56.961Z,84.10
2023-02-15T19:40:28.609Z,80.07
2023-02-15T19:42:56.470Z,66.25
2023-02-15T19:45:26.610Z,66.28
2023-02-15T19:47:56.391Z,63.42
2023-02-15T19:50:36.845Z,63.65
2023-02-15T19:53:11.526Z,59.58
2023-02-15T19:55:56.049Z,65.03
2023-02-15T19:58:27.642Z,63.10
2023-02-15T20:00:59.029Z,56.40
2023-02-15T20:03:30.479Z,56.98
2023-02-15T20:11:35.625Z,66.60
2023-02-15T20:14:04.044Z,62.35
2023-02-15T20:16:32.689Z,59.25
2023-02-15T20:19:00.551Z,58.87
2023-02-15T20:24:23.538Z,56.53
2023-02-15T20:26:54.506Z,55.33
2023-02-15T20:29:25.323Z,60.65
2023-02-15T20:34:56.088Z,58.52
2023-02-15T20:37:34.144Z,59.90
2023-02-15T20:48:28.033Z,57.03
2023-02-15T20:51:07.001Z,59.45
2023-02-15T20:53:38.156Z,59.60
2023-02-15T20:56:21.120Z,63.90
2023-02-15T20:58:51.047Z,65.78
2023-02-15T21:01:35.850Z,61.60
2023-02-15T21:04:11.333Z,63.28
2023-02-15T21:06:54.282Z,60.30
2023-02-15T21:12:20.997Z,67.70
2023-02-15T21:17:34.186Z,60.20
2023-02-15T21:20:03.518Z,64.12
2023-02-15T21:22:32.606Z,66.67
2023-02-15T21:25:02.619Z,60.35
2023-02-15T21:27:30.669Z,68.25
2023-02-15T21:29:59.535Z,63.42
2023-02-15T21:32:27.090Z,56.88
2023-02-15T21:35:07.334Z,63.38
2023-02-15T21:37:39.559Z,59.70
2023-02-15T21:40:17.140Z,57.03
2023-02-15T21:43:02.228Z,56.68
2023-02-15T21:45:48.695Z,52.93
2023-02-15T21:48:16.781Z,48.10
2023-02-15T21:51:03.563Z,55.63
2023-02-15T21:53:34.916Z,55.63
2023-02-15T21:58:58.762Z,51.77
2023-02-15T22:01:29.051Z,52.30
2023-02-15T22:03:59.479Z,49.58
2023-02-15T22:06:27.675Z,58.52
2023-02-15T22:08:58.453Z,50.73
2023-02-15T22:11:31.955Z,50.38
2023-02-15T22:14:00.215Z,50.48
2023-02-15T22:16:30.542Z,52.78
2023-02-15T22:18:58.095Z,53.35
2023-02-15T22:21:26.869Z,55.83
2023-02-15T22:23:57.959Z,51.98
2023-02-15T22:26:41.287Z,51.50
2023-02-15T22:29:12.819Z,48.75
2023-02-15T22:31:44.192Z,49.42
2023-02-15T22:34:18.487Z,47.13
2023-02-15T22:36:47.536Z,51.55
2023-02-15T22:39:16.929Z,53.50
2023-02-15T22:41:45.216Z,51.42
2023-02-15T22:44:14.077Z,45.30
2023-02-15T22:46:41.640Z,48.58
2023-02-15T22:49:30.077Z,49.83
2023-02-15T22:51:57.973Z,49.05
2023-02-15T22:54:25.676Z,51.63
2023-02-15T22:56:54.347Z,47.33
2023-02-15T22:59:29.470Z,44.77
2023-02-15T23:01:57.724Z,43.70
2023-02-15T23:04:28.146Z,43.17
2023-02-15T23:06:58.895Z,41.90
2023-02-15T23:09:26.591Z,46.15
2023-02-15T23:11:54.809Z,53.02
2023-02-15T23:14:26.393Z,68.12
2023-02-15T23:16:57.714Z,69.92
2023-02-15T23:19:25.872Z,52.65
2023-02-15T23:21:54.492Z,56.98
2023-02-15T23:24:28.765Z,61.13
2023-02-15T23:27:02.100Z,58.90
2023-02-15T23:29:30.602Z,59.10
2023-02-15T23:31:59.072Z,56.90
2023-02-15T23:34:31.005Z,62.08
2023-02-15T23:37:00.284Z,57.48
2023-02-15T23:39:47.988Z,57.40
2023-02-15T23:42:21.979Z,54.73
2023-02-15T23:44:50.079Z,55.45
2023-02-15T23:47:54.445Z,54.25
2023-02-15T23:50:25.070Z,56.37
2023-02-15T23:52:53.671Z,51.77
2023-02-15T23:58:15.281Z,55.92
